Time;durP1;ratioP1;P1;durP2;ratioP2;P2;SDS_P1;SDS_P2;PMS_P1;PMS_P2;Temp;Humidity;BMP_temperature;BMP_pressure;BME280_temperature;BME280_humidity;BME280_pressure;Samples;Min_cycle;Max_cycle;Signal;HPM_P1;HPM_P2
2022/10/02 00:00:00;;;;;;;3.37;1.63;;;15.00;99.90;;;15.19;94.37;100845.53;5009549;28;21197;-65
2022/10/02 00:02:46;;;;;;;6.73;1.27;;;14.90;99.90;;;15.04;95.80;100836.34;5019153;28;20713;-62
2022/10/02 00:05:27;;;;;;;4.60;1.90;;;14.90;99.90;;;15.03;95.96;100829.44;5029584;28;20664;-66
2022/10/02 00:07:56;;;;;;;3.40;1.50;;;14.90;99.90;;;15.03;96.32;100833.84;5026650;28;20637;-66
2022/10/02 00:10:43;;;;;;;1.80;1.50;;;14.80;99.90;;;15.07;96.10;100841.34;5030932;28;20640;-64
2022/10/02 00:13:55;;;;;;;1.23;1.13;;;14.80;99.90;;;15.00;95.93;100850.72;5039015;28;20671;-65
2022/10/02 00:16:35;;;;;;;1.00;1.00;;;14.80;99.90;;;15.09;95.39;100849.94;5051789;28;20620;-67
2022/10/02 00:19:02;;;;;;;2.70;1.57;;;14.90;99.90;;;15.00;96.22;100857.75;5050708;28;21070;-63
2022/10/02 00:22:08;;;;;;;3.60;1.10;;;14.80;99.90;;;15.00;96.64;100850.72;5045955;28;20668;-63
2022/10/02 00:24:58;;;;;;;2.20;1.70;;;14.80;99.90;;;14.95;96.32;100842.41;5018187;28;20641;-63
2022/10/02 00:28:02;;;;;;;4.50;2.10;;;14.80;99.90;;;14.93;96.31;100849.56;5038952;28;20647;-63
2022/10/02 00:30:43;;;;;;;2.67;1.00;;;14.70;99.90;;;14.89;96.93;100860.47;5042628;28;21313;-63
2022/10/02 00:33:59;;;;;;;2.30;1.23;;;14.70;99.90;;;15.07;95.89;100867.63;5049218;28;20615;-63
2022/10/02 00:37:14;;;;;;;2.20;0.90;;;14.70;99.90;;;15.27;93.99;100863.25;4989023;28;20643;-64
2022/10/02 00:39:54;;;;;;;0.97;0.87;;;14.70;99.90;;;14.96;95.67;100870.34;4956714;28;20657;-64
2022/10/02 00:42:42;;;;;;;1.80;1.20;;;14.70;99.90;;;14.91;95.90;100859.38;5026029;28;20648;-65
2022/10/02 00:45:27;;;;;;;4.17;1.07;;;14.70;99.90;;;14.98;94.78;100847.41;5010995;28;20629;-64
2022/10/02 00:48:50;;;;;;;0.80;0.80;;;14.70;99.90;;;14.89;95.29;100861.31;5017207;28;20739;-63
2022/10/02 00:51:51;;;;;;;4.07;1.30;;;14.70;99.90;;;15.00;94.85;100855.97;5034523;28;20651;-64
2022/10/02 00:55:00;;;;;;;1.30;1.20;;;14.80;99.90;;;14.91;94.92;100861.19;5037531;28;20686;-64
2022/10/02 00:58:06;;;;;;;1.57;1.20;;;14.70;99.90;;;14.83;95.49;100846.09;5009188;28;21033;-64
2022/10/02 01:00:33;;;;;;;1.40;1.30;;;14.70;99.90;;;14.86;95.24;100853.72;5010848;28;20730;-64
2022/10/02 01:03:13;;;;;;;2.03;1.10;;;14.70;99.90;;;14.99;94.03;100864.00;5009740;28;20643;-64
2022/10/02 01:05:41;;;;;;;2.57;1.00;;;14.70;99.90;;;14.92;94.72;100868.94;5009183;28;20644;-62
2022/10/02 01:08:07;;;;;;;4.60;0.90;;;14.70;99.90;;;14.94;94.82;100867.03;5027887;28;20636;-64
2022/10/02 01:10:36;;;;;;;0.97;0.97;;;14.70;99.90;;;14.95;94.70;100873.94;5030009;28;20687;-64
2022/10/02 01:13:04;;;;;;;1.80;0.90;;;14.80;99.90;;;14.90;95.33;100865.63;5011797;28;20630;-64
2022/10/02 01:15:45;;;;;;;1.40;1.30;;;14.70;99.90;;;14.87;95.16;100858.00;5021301;28;20639;-65
2022/10/02 01:18:13;;;;;;;1.73;1.10;;;14.70;99.90;;;14.87;94.37;100854.53;5029526;28;20613;-65
2022/10/02 01:20:46;;;;;;;8.50;1.37;;;14.70;99.90;;;14.93;94.84;100848.78;5030090;28;20655;-64
2022/10/02 01:23:23;;;;;;;1.20;1.10;;;14.70;99.90;;;14.99;94.47;100849.03;5028982;28;20632;-64
2022/10/02 01:25:50;;;;;;;1.33;1.00;;;14.70;99.90;;;15.02;94.18;100848.78;5037461;28;20624;-64
2022/10/02 01:28:18;;;;;;;1.80;0.97;;;14.80;99.90;;;15.09;93.45;100844.66;5036443;28;20646;-65
2022/10/02 01:30:50;;;;;;;5.40;1.13;;;14.80;99.90;;;15.03;93.92;100850.47;5010041;28;21748;-64
2022/10/02 01:33:17;;;;;;;4.00;1.57;;;14.80;99.90;;;14.95;94.28;100847.66;5032561;28;20624;-64
2022/10/02 01:35:45;;;;;;;3.37;1.10;;;14.80;99.90;;;15.13;93.90;100850.47;5043720;28;20624;-63
2022/10/02 01:38:16;;;;;;;1.20;1.10;;;14.80;99.90;;;15.01;94.36;100856.81;5048704;28;21032;-65
2022/10/02 01:40:43;;;;;;;3.53;1.40;;;14.80;99.90;;;14.95;94.41;100863.41;5049182;28;20640;-64
2022/10/02 01:43:21;;;;;;;4.30;1.77;;;14.80;99.90;;;14.98;93.98;100857.91;5032475;28;20642;-64
2022/10/02 01:46:37;;;;;;;2.83;1.60;;;14.80;99.90;;;15.03;94.29;100863.59;5024395;28;20636;-64
2022/10/02 01:49:24;;;;;;;1.67;1.10;;;14.80;99.90;;;15.04;94.42;100865.25;5045216;28;21081;-62
2022/10/02 01:52:47;;;;;;;1.20;1.10;;;14.80;99.90;;;15.01;93.95;100864.69;5030798;28;20629;-65
2022/10/02 01:55:45;;;;;;;5.77;1.30;;;14.80;99.90;;;14.97;94.74;100864.13;5030656;28;20698;-62
2022/10/02 01:58:22;;;;;;;7.23;1.70;;;14.80;99.90;;;15.01;94.08;100872.59;5030061;28;20617;-64
2022/10/02 02:00:59;;;;;;;6.87;1.40;;;14.80;99.90;;;15.16;93.23;100872.06;5032676;28;20639;-64
2022/10/02 02:03:26;;;;;;;3.20;1.60;;;14.90;99.90;;;15.09;93.10;100873.59;5026017;28;20647;-62
2022/10/02 02:06:02;;;;;;;2.50;1.10;;;14.80;99.90;;;15.06;93.56;100876.47;5028907;28;20624;-63
2022/10/02 02:08:51;;;;;;;1.80;1.30;;;14.80;99.90;;;15.05;93.74;100869.56;5027502;28;20648;-64
2022/10/02 02:11:20;;;;;;;6.13;1.27;;;14.90;99.90;;;15.06;93.25;100867.72;5031668;28;20694;-66
2022/10/02 02:14:21;;;;;;;2.90;1.23;;;14.80;99.90;;;15.17;93.34;100889.50;5012849;28;21053;-65
2022/10/02 02:16:55;;;;;;;1.87;1.30;;;14.90;99.90;;;15.06;94.14;100888.75;5014732;28;20683;-65
2022/10/02 02:19:47;;;;;;;2.10;1.30;;;14.90;99.90;;;15.06;94.40;100886.97;5012869;28;21196;-67
2022/10/02 02:22:29;;;;;;;1.47;1.27;;;14.80;99.90;;;15.09;94.06;100881.47;5012123;28;20724;-64
2022/10/02 02:25:02;;;;;;;3.03;1.10;;;14.90;99.90;;;15.09;94.34;100883.25;5038239;28;20625;-65
2022/10/02 02:27:37;;;;;;;1.03;1.03;;;14.90;99.90;;;15.02;94.90;100890.00;5046257;28;21224;-64
2022/10/02 02:30:10;;;;;;;1.27;0.93;;;14.90;99.90;;;15.01;95.01;100883.09;5027217;28;20668;-63
2022/10/02 02:32:51;;;;;;;1.00;1.00;;;14.90;99.90;;;15.07;94.93;100886.03;5025349;28;20696;-65
2022/10/02 02:35:30;;;;;;;2.50;1.50;;;14.90;99.90;;;15.00;95.93;100878.78;5012743;28;21036;-64
2022/10/02 02:38:05;;;;;;;5.30;1.57;;;14.90;99.90;;;14.90;96.73;100876.13;5001355;28;20629;-64
2022/10/02 02:40:38;;;;;;;0.90;0.90;;;14.80;99.90;;;14.95;97.00;100875.75;5052560;28;20648;-64
2022/10/02 02:43:13;;;;;;;1.00;1.00;;;14.80;99.90;;;15.13;95.45;100876.75;5052042;28;20624;-64
2022/10/02 02:45:53;;;;;;;2.73;1.67;;;14.70;99.90;;;15.27;94.79;100877.22;5050519;28;20646;-65
2022/10/02 02:48:27;;;;;;;2.00;1.20;;;14.70;99.90;;;15.07;96.09;100867.63;5031488;28;20678;-64
2022/10/02 02:51:03;;;;;;;3.67;1.10;;;14.70;99.90;;;15.05;96.51;100874.81;5032146;28;20695;-64
2022/10/02 02:53:57;;;;;;;1.17;0.80;;;14.60;99.90;;;15.02;96.45;100869.81;5019966;28;20993;-63
2022/10/02 02:56:26;;;;;;;1.40;1.20;;;14.60;99.90;;;14.99;97.19;100866.63;5041417;28;20673;-65
2022/10/02 02:58:58;;;;;;;7.10;1.07;;;14.60;99.90;;;14.94;97.89;100867.03;5026063;28;20637;-62
2022/10/02 03:01:25;;;;;;;1.20;1.20;;;14.60;99.90;;;14.98;97.73;100870.19;5012485;28;20646;-65
2022/10/02 03:03:52;;;;;;;1.63;1.50;;;14.50;99.90;;;14.97;97.54;100869.38;5037726;28;20668;-64
2022/10/02 03:06:32;;;;;;;1.20;1.10;;;14.50;99.90;;;14.85;98.51;100873.06;5038517;28;20621;-66
2022/10/02 03:09:00;;;;;;;4.60;0.93;;;14.50;99.90;;;15.01;97.66;100883.94;5029398;28;20664;-65
2022/10/02 03:11:48;;;;;;;2.27;1.70;;;14.50;99.90;;;15.07;96.66;100891.28;5031710;28;20633;-67
2022/10/02 03:14:49;;;;;;;4.23;1.80;;;14.60;99.90;;;15.17;96.12;100888.66;5017119;28;20684;-66
2022/10/02 03:17:41;;;;;;;7.63;2.10;;;14.60;99.90;;;15.16;96.20;100887.03;5031997;28;20632;-64
2022/10/02 03:22:55;;;;;;;3.60;2.40;;;14.60;99.90;;;15.18;95.54;100885.91;5010314;28;20653;-61
2022/10/02 03:25:30;;;;;;;6.57;2.50;;;14.60;99.90;;;15.15;95.56;100886.19;4979959;28;20671;-62
2022/10/02 03:28:17;;;;;;;1.40;1.40;;;14.70;99.90;;;15.15;95.88;100888.81;5000365;28;20687;-61
2022/10/02 03:31:05;;;;;;;3.47;1.90;;;14.70;99.90;;;15.20;95.37;100886.63;5010685;28;20649;-61
2022/10/02 03:33:34;;;;;;;3.13;1.87;;;14.70;99.90;;;15.32;94.47;100896.06;5008538;28;20636;-62
2022/10/02 03:36:02;;;;;;;2.77;1.80;;;14.80;99.90;;;15.10;95.72;100896.25;4993054;28;20638;-61
2022/10/02 03:38:32;;;;;;;3.70;1.80;;;14.70;99.90;;;15.26;94.91;100891.34;4993535;28;20618;-62
2022/10/02 03:40:58;;;;;;;3.00;1.70;;;14.70;99.90;;;15.22;94.88;100897.00;4978499;28;20629;-62
2022/10/02 03:43:29;;;;;;;4.50;2.20;;;14.70;99.90;;;15.22;95.34;100894.38;4994474;28;20661;-64
2022/10/02 03:45:56;;;;;;;5.23;1.50;;;14.70;99.90;;;15.33;94.46;100897.72;4993009;28;20664;-62
2022/10/02 03:48:23;;;;;;;2.70;2.13;;;14.70;99.90;;;15.33;94.43;100894.28;5009778;28;20642;-61
2022/10/02 03:50:50;;;;;;;3.03;1.80;;;14.70;99.90;;;15.36;94.47;100893.97;5002891;28;20670;-62
2022/10/02 03:53:24;;;;;;;3.53;2.10;;;14.80;99.90;;;15.32;94.47;100898.69;4975211;28;20622;-62
2022/10/02 03:56:29;;;;;;;2.03;1.90;;;14.80;99.90;;;15.29;94.94;100892.88;4972725;28;21208;-62
2022/10/02 03:59:00;;;;;;;3.83;2.10;;;14.70;99.90;;;15.19;95.52;100886.72;4993718;28;20619;-62
2022/10/02 04:01:38;;;;;;;2.30;1.70;;;14.70;99.90;;;15.24;94.95;100888.03;4993376;28;20649;-62
2022/10/02 04:04:22;;;;;;;1.80;1.70;;;14.70;99.90;;;15.24;95.26;100895.91;4992189;28;20711;-62
2022/10/02 04:07:01;;;;;;;4.27;1.73;;;14.80;99.90;;;15.07;96.18;100893.06;5007330;28;20683;-61
2022/10/02 04:09:41;;;;;;;5.67;1.63;;;14.70;99.90;;;15.35;94.88;100895.78;5002886;28;21064;-63
2022/10/02 04:13:15;;;;;;;3.90;1.47;;;14.80;99.90;;;15.29;94.94;100891.06;5009390;28;21197;-62
2022/10/02 04:16:07;;;;;;;2.20;1.43;;;14.70;99.90;;;15.30;95.38;100895.38;4987566;28;20641;-63
2022/10/02 04:18:58;;;;;;;2.00;1.70;;;14.70;99.90;;;15.29;95.81;100898.94;5010695;28;21065;-62
2022/10/02 04:21:33;;;;;;;4.63;1.90;;;14.80;99.90;;;15.28;95.88;100893.84;4993059;28;20738;-63
2022/10/02 04:24:29;;;;;;;4.50;1.40;;;14.70;99.90;;;15.34;95.86;100896.75;4992819;28;20640;-63
2022/10/02 04:27:08;;;;;;;4.50;1.90;;;14.70;99.90;;;15.39;95.63;100891.09;4991146;28;20625;-63
2022/10/02 04:29:48;;;;;;;1.90;1.50;;;14.80;99.90;;;15.39;95.71;100891.09;5010124;28;20731;-63
2022/10/02 04:32:25;;;;;;;4.83;1.60;;;14.70;99.90;;;15.43;95.27;100885.47;4976998;28;20719;-64
2022/10/02 04:34:52;;;;;;;10.80;2.30;;;14.80;99.90;;;15.46;95.68;100894.91;4992731;28;20633;-64
2022/10/02 04:37:51;;;;;;;2.20;1.23;;;14.80;99.90;;;15.37;96.04;100888.63;5010905;28;20614;-63
2022/10/02 04:40:35;;;;;;;5.07;1.57;;;14.80;99.90;;;15.35;96.78;100889.72;4973496;28;20680;-63
2022/10/02 04:43:25;;;;;;;1.13;1.03;;;14.80;99.90;;;15.19;97.97;100890.22;4993351;28;20988;-63
2022/10/02 04:46:39;;;;;;;8.10;2.03;;;14.80;99.90;;;15.22;97.89;100886.47;5011560;28;20696;-64
2022/10/02 04:49:29;;;;;;;5.10;1.80;;;14.70;99.90;;;15.26;98.05;100890.50;4987683;28;20679;-63
2022/10/02 04:52:22;;;;;;;2.17;1.90;;;14.70;99.90;;;15.26;98.65;100888.72;4993899;28;20692;-63
2022/10/02 04:55:27;;;;;;;1.87;1.77;;;14.70;99.90;;;15.25;98.79;100887.03;5010528;28;20692;-63
2022/10/02 04:58:34;;;;;;;3.70;1.70;;;14.70;99.90;;;15.23;98.81;100888.13;4983552;28;20645;-65
2022/10/02 05:01:21;;;;;;;14.10;2.03;;;14.60;99.90;;;15.26;98.95;100891.34;4992930;28;20657;-65
2022/10/02 05:03:56;;;;;;;2.40;1.50;;;14.70;99.90;;;15.21;100.00;100895.31;5010517;28;20699;-64
2022/10/02 05:06:39;;;;;;;1.97;1.40;;;14.60;99.90;;;15.10;99.89;100896.25;4993963;28;20617;-64
2022/10/02 05:09:28;;;;;;;3.17;1.53;;;14.60;99.90;;;15.10;100.00;100896.25;4992943;28;20637;-64
2022/10/02 05:12:32;;;;;;;3.70;1.87;;;14.60;99.90;;;15.15;100.00;100894.06;5011558;28;20637;-63
2022/10/02 05:15:15;;;;;;;1.50;1.10;;;14.50;99.90;;;15.15;100.00;100888.81;4999374;28;21032;-63
2022/10/02 05:17:53;;;;;;;3.33;1.20;;;14.60;99.90;;;14.96;100.00;100886.13;5006085;28;20661;-63
2022/10/02 05:20:42;;;;;;;1.20;1.17;;;14.50;99.90;;;14.98;100.00;100885.97;5010097;28;20641;-65
2022/10/02 05:23:42;;;;;;;4.17;1.50;;;14.40;99.90;;;14.87;100.00;100879.00;5011296;28;20618;-64
2022/10/02 05:26:51;;;;;;;1.60;1.23;;;14.40;99.90;;;14.86;100.00;100884.41;4993600;28;20625;-63
2022/10/02 05:29:43;;;;;;;1.90;1.23;;;14.30;99.90;;;14.85;100.00;100890.59;5011302;28;20649;-64
2022/10/02 05:32:19;;;;;;;2.10;1.20;;;14.30;99.90;;;14.83;100.00;100882.88;5011340;28;20661;-64
2022/10/02 05:35:08;;;;;;;10.93;1.90;;;14.30;99.90;;;14.88;100.00;100883.31;4996190;28;20641;-64
2022/10/02 05:38:35;;;;;;;4.97;1.40;;;14.30;99.90;;;14.91;100.00;100879.56;5013283;28;21054;-63
2022/10/02 05:41:12;;;;;;;2.93;1.40;;;14.30;99.90;;;14.88;100.00;100882.47;4974884;28;21451;-63
2022/10/02 05:44:10;;;;;;;4.53;1.90;;;14.30;99.90;;;14.93;100.00;100875.03;4996254;28;20629;-64
2022/10/02 05:47:24;;;;;;;7.40;1.70;;;14.30;99.90;;;14.89;100.00;100887.59;4980800;28;20652;-63
2022/10/02 05:49:59;;;;;;;6.50;1.40;;;14.30;99.90;;;14.86;100.00;100880.00;5012926;28;20675;-63
2022/10/02 05:52:41;;;;;;;3.50;1.00;;;14.30;99.90;;;14.88;100.00;100882.47;4981633;28;20625;-63
2022/10/02 05:55:31;;;;;;;2.77;1.57;;;14.30;99.90;;;14.96;100.00;100883.47;4996681;28;20626;-64
2022/10/02 05:58:18;;;;;;;8.87;1.10;;;14.40;99.90;;;14.93;100.00;100888.19;4997234;28;21029;-66
2022/10/02 06:00:49;;;;;;;1.90;1.27;;;14.40;99.90;;;14.96;100.00;100895.78;5014954;28;21205;-64
2022/10/02 06:03:44;;;;;;;3.40;1.60;;;14.40;99.90;;;14.85;100.00;100901.94;5014621;28;20660;-64
2022/10/02 06:06:19;;;;;;;2.50;1.90;;;14.30;99.90;;;14.86;100.00;100906.25;4994478;28;20715;-63
2022/10/02 06:08:53;;;;;;;1.97;1.37;;;14.30;99.90;;;14.81;100.00;100911.06;4975754;28;20637;-64
2022/10/02 06:11:41;;;;;;;3.50;1.40;;;14.30;99.90;;;14.88;100.00;100904.34;5009653;28;20677;-65
2022/10/02 06:14:33;;;;;;;1.43;1.43;;;14.30;99.90;;;14.85;100.00;100903.75;4990163;28;20688;-64
2022/10/02 06:17:33;;;;;;;4.07;1.30;;;14.30;99.90;;;14.71;100.00;100910.19;4994815;28;21188;-64
2022/10/02 06:20:26;;;;;;;1.50;1.13;;;14.20;99.90;;;14.68;100.00;100918.31;4995609;28;21088;-65
2022/10/02 06:23:19;;;;;;;1.97;1.70;;;14.20;99.90;;;14.60;100.00;100905.84;5012770;28;20700;-64
2022/10/02 06:25:55;;;;;;;4.43;1.70;;;14.20;99.90;;;14.70;100.00;100913.75;5013862;28;20692;-64
2022/10/02 06:29:02;;;;;;;1.47;1.30;;;14.20;99.90;;;14.65;100.00;100901.00;4994454;28;20736;-64
2022/10/02 06:31:39;;;;;;;1.60;1.50;;;14.20;99.90;;;14.57;100.00;100900.00;4996928;28;20684;-63
2022/10/02 06:34:11;;;;;;;2.13;1.30;;;14.10;99.90;;;14.46;100.00;100898.28;5012200;28;21254;-64
2022/10/02 06:36:59;;;;;;;3.90;1.23;;;14.10;99.90;;;14.61;100.00;100891.72;5013187;28;20622;-65
2022/10/02 06:39:53;;;;;;;2.20;1.40;;;14.10;99.90;;;14.64;100.00;100890.66;5013418;28;20687;-64
2022/10/02 06:42:31;;;;;;;3.47;1.60;;;14.10;99.90;;;14.51;100.00;100887.38;5013025;28;21056;-65
2022/10/02 06:45:14;;;;;;;1.33;1.23;;;14.10;99.90;;;14.34;100.00;100893.22;5013724;28;21169;-65
2022/10/02 06:48:04;;;;;;;1.67;1.23;;;14.10;99.90;;;14.39;100.00;100891.06;5001074;28;20629;-64
2022/10/02 06:51:06;;;;;;;9.20;1.73;;;14.00;99.90;;;14.52;100.00;100895.13;4977961;28;20673;-63
2022/10/02 06:54:17;;;;;;;3.10;1.50;;;14.00;99.90;;;14.47;100.00;100899.13;5007428;28;20621;-63
2022/10/02 06:57:18;;;;;;;1.23;1.13;;;14.00;99.90;;;14.60;100.00;100900.59;5009084;28;20621;-64
2022/10/02 07:00:18;;;;;;;1.57;1.47;;;14.10;99.90;;;14.58;100.00;100907.78;5011789;28;20659;-64
2022/10/02 07:03:16;;;;;;;3.13;1.30;;;14.10;99.90;;;14.49;100.00;100907.69;4982726;28;20640;-64
2022/10/02 07:06:09;;;;;;;4.43;1.53;;;14.10;99.90;;;14.58;100.00;100909.56;4993854;28;20664;-64
2022/10/02 07:08:52;;;;;;;4.20;1.37;;;14.10;99.90;;;14.63;100.00;100899.47;5009702;28;20687;-64
2022/10/02 07:12:09;;;;;;;2.13;1.40;;;14.10;99.90;;;14.56;100.00;100899.19;5012006;28;20681;-64
2022/10/02 07:15:09;;;;;;;1.47;1.23;;;14.10;99.90;;;14.67;100.00;100906.97;4995924;28;20609;-64
2022/10/02 07:17:53;;;;;;;1.90;1.23;;;14.20;99.90;;;14.57;100.00;100907.88;5012747;28;21054;-64
2022/10/02 07:20:52;;;;;;;1.80;1.50;;;14.10;99.90;;;14.55;100.00;100905.38;5012895;28;20610;-64
2022/10/02 07:23:45;;;;;;;3.80;1.10;;;14.10;99.90;;;14.38;100.00;100903.34;5009595;28;20711;-64
2022/10/02 07:26:31;;;;;;;2.90;1.40;;;14.10;99.90;;;14.52;100.00;100903.00;5010407;28;20622;-64
2022/10/02 07:29:13;;;;;;;0.97;0.97;;;14.00;99.90;;;14.50;100.00;100897.06;4974398;28;20685;-64
2022/10/02 07:31:53;;;;;;;1.60;1.47;;;14.00;99.90;;;14.58;100.00;100897.25;5002320;28;20678;-65
2022/10/02 07:35:07;;;;;;;1.70;1.40;;;14.10;99.90;;;14.62;100.00;100913.59;4992737;28;20720;-64
2022/10/02 07:37:53;;;;;;;3.07;1.53;;;14.10;99.90;;;14.71;100.00;100918.88;5001708;28;20645;-63
2022/10/02 07:40:53;;;;;;;1.40;1.20;;;14.10;99.90;;;14.76;100.00;100911.44;5011386;28;20637;-63
2022/10/02 07:43:25;;;;;;;4.23;1.43;;;14.20;99.90;;;14.78;100.00;100909.53;4998644;28;20617;-64
2022/10/02 07:46:17;;;;;;;1.50;1.50;;;14.20;99.90;;;14.83;100.00;100924.91;5013121;28;20642;-63
2022/10/02 07:49:25;;;;;;;1.40;1.30;;;14.20;99.90;;;14.89;100.00;100932.25;4998971;28;20638;-63
2022/10/02 07:52:35;;;;;;;3.87;1.63;;;14.30;99.90;;;14.87;100.00;100942.06;5008391;28;20677;-64
2022/10/02 07:55:18;;;;;;;6.93;2.00;;;14.30;99.90;;;14.80;100.00;100940.91;5011883;28;20660;-62
2022/10/02 07:57:51;;;;;;;3.33;1.50;;;14.30;99.90;;;14.79;100.00;100941.88;4994696;28;20610;-64
2022/10/02 08:00:22;;;;;;;4.20;1.70;;;14.30;99.90;;;14.72;100.00;100940.72;5012794;28;20601;-63
2022/10/02 08:03:07;;;;;;;1.40;1.30;;;14.30;99.90;;;14.71;100.00;100946.97;4993792;28;20663;-64
2022/10/02 08:05:45;;;;;;;1.80;1.30;;;14.20;99.90;;;14.75;100.00;100940.47;4990584;28;20646;-62
2022/10/02 08:08:29;;;;;;;2.07;1.10;;;14.20;99.90;;;14.80;100.00;100938.28;4991498;28;20703;-64
2022/10/02 08:11:20;;;;;;;1.37;1.27;;;14.30;99.90;;;14.73;100.00;100939.78;5010990;28;20724;-64
2022/10/02 08:14:07;;;;;;;1.47;1.30;;;14.30;99.90;;;14.71;100.00;100928.56;4993610;28;20638;-63
2022/10/02 08:16:46;;;;;;;1.20;1.20;;;14.20;99.90;;;14.76;100.00;100921.97;4993146;28;20637;-64
2022/10/02 08:19:23;;;;;;;1.10;1.00;;;14.20;99.90;;;14.73;100.00;100918.78;4993664;28;21183;-64
2022/10/02 08:22:13;;;;;;;1.40;1.30;;;14.30;99.90;;;14.62;100.00;100909.16;5010740;28;20719;-64
2022/10/02 08:24:48;;;;;;;1.23;1.13;;;14.20;99.90;;;14.53;100.00;100917.81;4994253;28;21048;-64
2022/10/02 08:27:21;;;;;;;1.60;1.60;;;14.10;99.90;;;14.74;100.00;100917.78;4993480;28;20651;-64
2022/10/02 08:29:55;;;;;;;1.37;1.27;;;14.20;99.90;;;14.62;100.00;100918.84;4994507;28;20692;-64
2022/10/02 08:32:26;;;;;;;0.80;0.80;;;14.20;99.90;;;14.67;100.00;100924.53;4993866;28;20658;-63
2022/10/02 08:34:59;;;;;;;2.50;1.30;;;14.20;99.90;;;14.78;100.00;100927.06;4994697;28;21073;-62
2022/10/02 08:37:55;;;;;;;0.77;0.77;;;14.20;99.90;;;14.86;100.00;100927.28;5007886;28;20637;-63
2022/10/02 08:40:56;;;;;;;1.10;1.10;;;14.30;99.90;;;14.73;100.00;100921.41;5007496;28;20635;-64
2022/10/02 08:43:59;;;;;;;2.60;2.20;;;14.30;99.90;;;14.80;100.00;100917.25;4972505;28;20733;-64
2022/10/02 08:47:07;;;;;;;1.10;1.07;;;14.30;99.90;;;14.79;100.00;100918.25;5001031;28;21160;-64
2022/10/02 08:49:38;;;;;;;2.30;1.57;;;14.30;99.90;;;14.97;100.00;100908.78;4971247;28;20652;-64
2022/10/02 08:52:43;;;;;;;1.23;1.23;;;14.40;99.90;;;14.75;100.00;100914.22;4993735;28;20712;-64
2022/10/02 08:55:53;;;;;;;2.17;1.60;;;14.30;99.90;;;14.71;100.00;100915.44;5010256;28;20680;-65
2022/10/02 08:58:22;;;;;;;0.90;0.90;;;14.30;99.90;;;14.65;100.00;100921.22;5010263;28;20633;-63
2022/10/02 09:01:31;;;;;;;0.70;0.70;;;14.30;99.90;;;14.89;100.00;100928.78;5011873;28;20638;-65
2022/10/02 09:04:22;;;;;;;1.77;1.27;;;14.30;99.90;;;14.80;100.00;100930.41;5010736;28;20684;-64
2022/10/02 09:07:16;;;;;;;1.10;1.10;;;14.40;99.90;;;15.08;100.00;100937.59;5011307;28;20606;-64
2022/10/02 09:10:00;;;;;;;1.30;1.17;;;14.40;99.90;;;14.98;100.00;100926.22;4991321;28;20638;-63
2022/10/02 09:13:00;;;;;;;1.10;1.10;;;14.40;99.90;;;14.76;100.00;100931.63;4992773;28;20642;-63
2022/10/02 09:15:52;;;;;;;1.10;1.10;;;14.40;99.90;;;14.80;100.00;100937.47;4992618;28;20687;-65
2022/10/02 09:18:59;;;;;;;1.53;1.43;;;14.30;99.90;;;14.87;100.00;100922.84;4981585;28;20692;-67
2022/10/02 09:21:59;;;;;;;1.63;1.47;;;14.40;99.90;;;14.93;100.00;100901.31;5006288;23;20682;-66
2022/10/02 09:25:06;;;;;;;1.67;1.57;;;14.50;99.90;;;15.14;100.00;100921.31;4989745;28;21254;-64
2022/10/02 09:28:07;;;;;;;2.30;1.23;;;14.50;99.90;;;15.20;100.00;100905.03;4969031;28;20713;-65
2022/10/02 09:31:15;;;;;;;1.00;1.00;;;14.70;99.90;;;15.10;100.00;100909.41;4993844;28;21216;-63
2022/10/02 09:34:32;;;;;;;1.30;1.30;;;14.60;99.90;;;15.24;100.00;100914.31;4981466;28;20623;-64
2022/10/02 09:37:36;;;;;;;2.73;1.70;;;14.60;99.90;;;15.33;100.00;100921.38;4972875;28;21066;-65
2022/10/02 09:40:35;;;;;;;1.30;1.23;;;14.70;99.90;;;15.49;100.00;100929.63;4973750;28;20634;-64
2022/10/02 09:43:34;;;;;;;1.03;0.93;;;14.80;99.90;;;15.34;100.00;100917.78;4971463;28;20697;-65
2022/10/02 09:46:41;;;;;;;0.90;0.90;;;14.80;99.90;;;15.32;100.00;100917.09;4974537;28;20681;-64
2022/10/02 09:50:01;;;;;;;1.00;1.00;;;14.70;99.90;;;15.38;100.00;100908.66;4972651;28;20630;-64
2022/10/02 09:53:16;;;;;;;0.90;0.90;;;14.80;99.90;;;15.51;100.00;100903.19;4976247;28;20689;-65
2022/10/02 09:56:21;;;;;;;1.00;1.00;;;14.90;99.90;;;15.43;100.00;100911.75;4986195;28;20682;-64
2022/10/02 09:59:21;;;;;;;0.90;0.90;;;14.90;99.90;;;15.60;100.00;100923.44;4967700;28;21008;-64
2022/10/02 10:02:12;;;;;;;1.00;1.00;;;14.90;99.90;;;15.53;100.00;100922.28;4991294;28;20622;-63
2022/10/02 10:05:32;;;;;;;1.83;0.90;;;14.90;99.90;;;15.64;100.00;100932.72;4991173;28;20722;-64
2022/10/02 10:08:36;;;;;;;0.97;0.97;;;14.90;99.90;;;15.69;100.00;100927.03;4987275;28;20702;-61
2022/10/02 10:11:29;;;;;;;1.30;1.20;;;15.00;99.90;;;15.71;100.00;100938.25;4990830;28;20666;-65
2022/10/02 10:14:35;;;;;;;1.00;1.00;;;15.00;99.90;;;15.76;100.00;100950.03;4972921;28;20669;-64
2022/10/02 10:17:18;;;;;;;0.90;0.90;;;15.00;99.90;;;15.79;100.00;100943.66;4993991;28;20634;-65
2022/10/02 10:20:21;;;;;;;1.20;1.10;;;15.10;99.90;;;15.55;100.00;100925.63;4994159;28;21043;-65
2022/10/02 10:23:21;;;;;;;1.10;1.00;;;15.00;99.90;;;15.58;100.00;100942.94;4948865;28;20684;-64
2022/10/02 10:26:09;;;;;;;1.30;1.23;;;15.00;99.90;;;15.66;100.00;100946.56;4990591;28;20663;-65
2022/10/02 10:29:06;;;;;;;0.93;0.93;;;15.00;99.90;;;15.44;100.00;100923.94;4993406;28;21069;-65
2022/10/02 10:31:48;;;;;;;1.20;0.97;;;15.00;99.90;;;15.45;100.00;100925.59;4993070;28;21272;-65
2022/10/02 10:34:44;;;;;;;3.67;1.00;;;14.90;99.90;;;15.46;100.00;100927.25;4993500;28;20634;-65
2022/10/02 10:40:22;;;;;;;0.90;0.90;;;14.90;99.90;;;15.86;100.00;100936.91;4974568;28;21216;-65
2022/10/02 10:43:27;;;;;;;1.20;1.20;;;15.10;99.90;;;16.00;100.00;100936.50;4992771;28;20642;-62
2022/10/02 10:46:35;;;;;;;1.33;1.23;;;15.10;99.90;;;15.80;100.00;100919.03;4981326;28;20673;-65
2022/10/02 10:49:36;;;;;;;1.07;0.97;;;15.10;99.90;;;15.48;100.00;100927.16;4994199;28;20619;-65
2022/10/02 10:52:44;;;;;;;1.13;1.03;;;15.00;99.90;;;15.60;100.00;100927.84;4975338;28;20674;-64
2022/10/02 10:55:28;;;;;;;0.90;0.90;;;15.10;99.90;;;15.72;100.00;100932.00;4977311;28;21174;-65
2022/10/02 10:58:14;;;;;;;1.10;1.07;;;15.10;99.90;;;15.90;100.00;100933.88;4988242;28;20646;-65
2022/10/02 11:00:56;;;;;;;1.00;1.00;;;15.10;99.90;;;15.93;100.00;100938.03;4992574;28;20681;-64
2022/10/02 11:04:17;;;;;;;0.87;0.87;;;15.20;99.90;;;15.77;100.00;100930.66;4990946;28;20633;-65
2022/10/02 11:06:57;;;;;;;0.83;0.83;;;15.20;99.90;;;15.74;100.00;100930.91;4992141;28;20658;-65
2022/10/02 11:09:49;;;;;;;1.37;1.00;;;15.10;99.90;;;15.95;100.00;100926.38;4975885;28;20614;-65
2022/10/02 11:13:01;;;;;;;9.07;5.33;;;15.20;99.90;;;16.05;100.00;100934.28;4993555;28;20674;-65
2022/10/02 11:15:43;;;;;;;6.50;4.63;;;15.30;99.90;;;16.14;100.00;100939.53;4994549;28;21191;-65
2022/10/02 11:18:23;;;;;;;1.57;1.47;;;15.40;99.90;;;16.25;100.00;100949.09;4993462;28;20660;-65
2022/10/02 11:21:09;;;;;;;0.97;0.97;;;15.40;99.90;;;16.22;100.00;100946.78;4976509;28;20619;-65
2022/10/02 11:23:43;;;;;;;1.00;0.90;;;15.50;99.90;;;16.20;99.68;100943.44;4993818;28;20641;-65
2022/10/02 11:26:42;;;;;;;0.80;0.80;;;15.50;99.90;;;16.07;100.00;100937.63;4993599;28;20618;-65
2022/10/02 11:29:54;;;;;;;0.93;0.93;;;15.40;99.90;;;16.05;100.00;100945.66;4993326;28;20677;-65
2022/10/02 11:32:50;;;;;;;2.33;1.20;;;15.30;99.90;;;16.11;100.00;100947.72;4976590;28;20728;-65
2022/10/02 11:35:31;;;;;;;0.90;0.90;;;15.40;99.90;;;16.25;100.00;100941.19;4993581;28;20623;-65
2022/10/02 11:38:16;;;;;;;0.97;0.97;;;15.40;99.90;;;16.23;100.00;100948.41;4976372;28;20618;-64